Time;durP1;ratioP1;P1;durP2;ratioP2;P2;SDS_P1;SDS_P2;PMS_P1;PMS_P2;Temp;Humidity;BMP_temperature;BMP_pressure;BME280_temperature;BME280_humidity;BME280_pressure;Samples;Min_cycle;Max_cycle;Signal;HPM_P1;HPM_P2
2022/04/15 00:01:47;;;;;;;;;9.00;7.25;;;;;18.11;40.04;98542.28;4825319;29;104298;-65
2022/04/15 00:04:14;;;;;;;;;7.50;7.50;;;;;18.12;39.44;98551.31;4825638;29;102109;-65
2022/04/15 00:06:41;;;;;;;;;10.25;9.00;;;;;18.11;39.59;98541.44;4826785;29;102077;-65
2022/04/15 00:09:08;;;;;;;;;9.50;7.75;;;;;18.10;39.14;98532.41;4827410;29;102531;-65
2022/04/15 00:11:37;;;;;;;;;6.00;6.00;;;;;18.10;39.15;98539.81;4828982;29;104176;-65
2022/04/15 00:14:04;;;;;;;;;8.50;7.00;;;;;18.09;40.00;98535.41;4826147;29;102074;-65
2022/04/15 00:16:31;;;;;;;;;7.75;7.75;;;;;18.11;39.21;98542.28;4828907;29;102542;-65
2022/04/15 00:18:58;;;;;;;;;8.75;8.00;;;;;18.10;39.84;98540.59;4829678;29;102473;-65
2022/04/15 00:21:25;;;;;;;;;9.00;8.50;;;;;18.10;39.26;98540.59;4826140;29;104146;-65
2022/04/15 00:23:56;;;;;;;;;7.75;6.00;;;;;18.10;39.35;98534.34;4824905;29;102414;-65
2022/04/15 00:26:23;;;;;;;;;7.75;7.75;;;;;18.10;40.05;98537.06;4813607;29;103163;-65
2022/04/15 00:28:52;;;;;;;;;8.00;6.50;;;;;18.09;39.43;98540.88;4828651;29;102525;-65
2022/04/15 00:31:19;;;;;;;;;7.50;6.75;;;;;18.08;39.79;98526.38;4822670;29;104036;-65
2022/04/15 00:33:46;;;;;;;;;8.00;7.00;;;;;18.08;40.07;98539.22;4827772;29;102418;-65
2022/04/15 00:36:13;;;;;;;;;7.50;7.00;;;;;18.07;39.63;98543.84;4825963;29;102142;-65
2022/04/15 00:38:40;;;;;;;;;7.75;7.75;;;;;18.07;39.68;98548.50;4828253;29;102263;-65
2022/04/15 00:41:13;;;;;;;;;9.50;8.00;;;;;18.06;39.16;98544.09;4824857;29;104067;-65
2022/04/15 00:43:40;;;;;;;;;6.00;6.00;;;;;18.06;39.50;98536.72;4810782;29;102158;-65
2022/04/15 00:46:07;;;;;;;;;8.25;7.00;;;;;18.06;39.48;98541.38;4829712;29;102143;-65
2022/04/15 00:48:36;;;;;;;;;6.00;6.00;;;;;18.07;40.26;98545.75;4809141;29;102610;-65
2022/04/15 00:51:03;;;;;;;;;8.50;7.50;;;;;18.06;39.97;98549.56;4827290;29;104061;-65
2022/04/15 00:53:31;;;;;;;;;7.50;7.00;;;;;18.05;39.19;98542.47;4825124;29;102236;-65
2022/04/15 00:56:01;;;;;;;;;8.25;8.25;;;;;18.05;39.52;98547.94;4826738;29;103547;-65
2022/04/15 00:58:28;;;;;;;;;8.25;7.25;;;;;18.05;40.00;98550.69;4826082;29;102456;-65
2022/04/15 01:00:58;;;;;;;;;7.00;6.00;;;;;18.05;39.73;98548.78;4809479;29;103388;-65
2022/04/15 01:03:26;;;;;;;;;8.50;7.00;;;;;18.05;39.30;98542.47;4830583;29;102375;-65
2022/04/15 01:05:56;;;;;;;;;8.00;7.00;;;;;18.04;39.55;98535.31;4825835;29;102205;-65
2022/04/15 01:08:23;;;;;;;;;8.25;7.00;;;;;18.05;39.24;98539.72;4808328;29;102099;-65
2022/04/15 01:10:51;;;;;;;;;9.50;8.00;;;;;18.04;39.57;98535.31;4808650;29;104237;-65
2022/04/15 01:13:18;;;;;;;;;6.00;6.00;;;;;18.02;39.86;98560.19;4829311;29;102501;-65
2022/04/15 01:15:50;;;;;;;;;7.25;7.00;;;;;18.03;40.12;98567.34;4825502;29;102450;-65
2022/04/15 01:18:17;;;;;;;;;8.50;8.00;;;;;18.02;39.89;98570.31;4794171;29;102211;-65
2022/04/15 01:20:46;;;;;;;;;8.00;7.25;;;;;18.01;39.77;98558.53;4825461;29;104085;-65
2022/04/15 01:23:13;;;;;;;;;7.50;6.75;;;;;18.02;40.06;98575.78;4812410;29;102475;-65
2022/04/15 01:25:40;;;;;;;;;9.00;8.25;;;;;18.01;39.57;98576.88;4826679;29;102062;-65
2022/04/15 01:28:07;;;;;;;;;6.00;6.00;;;;;18.01;39.59;98576.88;4827499;29;102067;-65
2022/04/15 01:30:34;;;;;;;;;7.75;7.25;;;;;18.01;39.33;98590.56;4827551;29;104043;-65
2022/04/15 01:33:03;;;;;;;;;7.00;6.25;;;;;18.01;39.15;98585.88;4823419;29;102395;-65
2022/04/15 01:35:33;;;;;;;;;10.25;7.50;;;;;18.00;39.50;98591.63;4825125;29;103093;-65
2022/04/15 01:38:02;;;;;;;;;7.75;7.25;;;;;18.00;39.49;98589.72;4826056;29;102310;-65
2022/04/15 01:40:29;;;;;;;;;8.25;7.00;;;;;18.00;39.78;98575.22;4827981;29;104204;-66
2022/04/15 01:42:57;;;;;;;;;8.00;7.75;;;;;17.99;39.61;98570.81;4826579;29;102722;-65
2022/04/15 01:45:23;;;;;;;;;10.25;9.00;;;;;17.99;39.70;98579.03;4828998;29;102160;-65
2022/04/15 01:47:52;;;;;;;;;8.25;8.25;;;;;17.98;39.61;98574.63;4812561;29;102320;-65
2022/04/15 01:50:19;;;;;;;;;7.00;6.50;;;;;17.98;39.46;98580.94;4826283;29;104058;-65
2022/04/15 01:52:46;;;;;;;;;7.00;7.00;;;;;17.98;39.00;98574.63;4826868;29;102170;-65
2022/04/15 01:55:12;;;;;;;;;8.00;7.50;;;;;17.97;39.81;98583.91;4826383;29;105926;-65
2022/04/15 01:57:39;;;;;;;;;8.25;7.00;;;;;17.96;39.50;98579.53;4828842;29;102871;-65
2022/04/15 02:00:07;;;;;;;;;7.00;7.00;;;;;17.96;39.45;98572.16;4826927;29;104227;-65
2022/04/15 02:02:34;;;;;;;;;7.25;6.75;;;;;17.96;39.41;98580.38;4826495;29;102167;-65
2022/04/15 02:05:00;;;;;;;;;8.25;7.75;;;;;17.96;39.58;98571.31;4823863;29;102245;-65
2022/04/15 02:07:27;;;;;;;;;9.00;7.50;;;;;17.97;39.32;98592.09;4827395;29;102085;-65
2022/04/15 02:09:54;;;;;;;;;8.75;7.00;;;;;17.96;39.99;98583.09;4827470;29;104141;-65
2022/04/15 02:12:21;;;;;;;;;8.00;7.25;;;;;17.96;39.59;98588.56;4829625;29;102590;-65
2022/04/15 02:14:48;;;;;;;;;5.25;5.25;;;;;17.96;39.17;98602.25;4826573;29;102381;-65
2022/04/15 02:17:15;;;;;;;;;10.25;8.25;;;;;17.96;40.13;98593.22;4827968;29;102264;-66
2022/04/15 02:19:42;;;;;;;;;8.50;7.50;;;;;17.95;40.02;98592.38;4823618;29;104267;-65
2022/04/15 02:22:09;;;;;;;;;7.00;7.00;;;;;17.96;39.51;98588.56;4824424;29;102157;-66
2022/04/15 02:24:36;;;;;;;;;7.50;7.00;;;;;17.94;39.34;98584.41;4825877;29;102489;-65
2022/04/15 02:27:03;;;;;;;;;9.00;7.00;;;;;17.94;39.50;98576.19;4826767;29;102222;-65
2022/04/15 02:29:30;;;;;;;;;7.00;6.00;;;;;17.94;40.00;98595.34;4827432;29;104169;-65
2022/04/15 02:31:56;;;;;;;;;7.75;7.00;;;;;17.93;40.01;98591.78;4824235;29;102527;-65
2022/04/15 02:34:23;;;;;;;;;6.00;5.75;;;;;17.92;39.61;98589.31;4827195;29;102158;-66
2022/04/15 02:36:50;;;;;;;;;8.00;7.25;;;;;17.93;39.30;98599.16;4826555;29;102448;-65
2022/04/15 02:39:17;;;;;;;;;8.00;7.50;;;;;17.93;39.86;98593.69;4826156;29;104113;-65
2022/04/15 02:41:44;;;;;;;;;7.75;7.00;;;;;17.92;39.95;98601.06;4825803;29;102425;-65
2022/04/15 02:44:11;;;;;;;;;10.00;8.00;;;;;17.93;39.90;98596.41;4827417;29;102174;-66
2022/04/15 02:46:38;;;;;;;;;8.50;7.00;;;;;17.92;40.50;98597.53;4826166;29;102026;-65
2022/04/15 02:49:05;;;;;;;;;7.75;7.50;;;;;17.91;40.13;98602.16;4810748;29;104240;-65
2022/04/15 02:51:32;;;;;;;;;7.75;6.00;;;;;17.93;39.70;98604.63;4822087;29;102366;-65
2022/04/15 02:53:58;;;;;;;;;6.75;6.00;;;;;17.94;39.56;98614.50;4813649;29;102040;-65
2022/04/15 02:56:25;;;;;;;;;8.50;7.00;;;;;17.92;39.40;98613.94;4824285;29;103337;-65
2022/04/15 02:58:52;;;;;;;;;7.00;7.00;;;;;17.92;39.48;98613.94;4825224;29;104237;-65
2022/04/15 03:01:19;;;;;;;;;7.00;7.00;;;;;17.91;40.17;98621.31;4820670;29;102123;-65
2022/04/15 03:03:46;;;;;;;;;8.00;8.00;;;;;17.91;39.44;98623.22;4828211;29;102256;-65
2022/04/15 03:06:13;;;;;;;;;8.25;7.50;;;;;17.90;39.52;98616.91;4824919;29;102230;-65
2022/04/15 03:08:40;;;;;;;;;9.00;8.50;;;;;17.91;39.62;98625.94;4824276;29;104240;-65
2022/04/15 03:11:07;;;;;;;;;6.50;6.50;;;;;17.90;40.00;98627.84;4823155;29;102731;-65
2022/04/15 03:13:36;;;;;;;;;7.00;7.00;;;;;17.90;39.36;98618.81;4826792;29;102395;-65
2022/04/15 03:16:04;;;;;;;;;7.00;6.00;;;;;17.90;40.36;98632.50;4808360;29;102164;-65
2022/04/15 03:18:31;;;;;;;;;11.00;6.00;;;;;17.89;39.15;98626.19;4824479;29;104082;-66
2022/04/15 03:20:58;;;;;;;;;9.25;8.00;;;;;17.90;40.04;98629.75;4822967;29;102590;-65
2022/04/15 03:23:25;;;;;;;;;8.25;7.25;;;;;17.90;39.41;98629.75;4823284;29;102445;-65
2022/04/15 03:25:51;;;;;;;;;7.00;6.25;;;;;17.89;39.47;98636.31;4825490;29;102234;-65
2022/04/15 03:28:19;;;;;;;;;7.25;7.25;;;;;17.89;40.06;98628.94;4825541;29;104116;-65
2022/04/15 03:30:46;;;;;;;;;10.75;8.75;;;;;17.90;39.27;98637.97;4824281;29;102329;-65
2022/04/15 03:33:13;;;;;;;;;8.00;7.25;;;;;17.89;39.27;98636.31;4823739;29;102582;-65
2022/04/15 03:35:40;;;;;;;;;6.50;6.50;;;;;17.89;39.74;98639.03;4825441;29;103251;-65
2022/04/15 03:38:07;;;;;;;;;8.00;8.00;;;;;17.90;40.19;98640.69;4825704;29;103927;-65
2022/04/15 03:40:34;;;;;;;;;9.00;8.00;;;;;17.88;39.65;98640.13;4825239;29;102113;-65
2022/04/15 03:43:01;;;;;;;;;6.75;6.75;;;;;17.88;40.09;98640.13;4825383;29;102311;-65
2022/04/15 03:45:28;;;;;;;;;7.00;7.00;;;;;17.88;39.91;98645.59;4813145;29;103342;-65
2022/04/15 03:47:55;;;;;;;;;7.25;6.50;;;;;17.87;40.02;98652.97;4829418;29;104063;-65
2022/04/15 03:50:22;;;;;;;;;9.00;8.00;;;;;17.87;39.74;98654.88;4829405;29;102014;-66
2022/04/15 03:52:49;;;;;;;;;7.75;7.00;;;;;17.86;39.71;98651.31;4827201;29;102194;-66
2022/04/15 03:55:18;;;;;;;;;7.00;6.75;;;;;17.86;39.52;98654.06;4817199;29;102453;-65
2022/04/15 03:57:45;;;;;;;;;8.00;6.00;;;;;17.85;39.49;98652.38;4825802;29;104137;-65
2022/04/15 04:00:14;;;;;;;;;6.50;6.00;;;;;17.86;39.53;98655.94;4829397;29;102468;-65
2022/04/15 04:02:44;;;;;;;;;7.00;7.00;;;;;17.84;39.74;98654.28;4828138;29;102472;-66
2022/04/15 04:05:13;;;;;;;;;7.00;7.00;;;;;17.86;40.11;98642.28;4830146;29;102208;-66
2022/04/15 04:07:43;;;;;;;;;6.75;6.00;;;;;17.86;39.54;98647.75;4827162;29;104287;-66
2022/04/15 04:10:13;;;;;;;;;8.00;7.00;;;;;17.86;39.42;98653.22;4826451;29;102348;-66
2022/04/15 04:12:40;;;;;;;;;7.50;6.50;;;;;17.86;39.28;98662.25;4817179;29;102059;-66
2022/04/15 04:15:09;;;;;;;;;6.50;6.25;;;;;17.87;39.39;98660.34;4830054;29;103573;-65
2022/04/15 04:17:36;;;;;;;;;10.00;8.75;;;;;17.86;39.58;98661.41;4809586;29;104033;-65
2022/04/15 04:20:06;;;;;;;;;6.50;6.50;;;;;17.84;40.05;98651.56;4826514;29;102163;-65
2022/04/15 04:22:34;;;;;;;;;8.50;7.75;;;;;17.84;40.01;98646.06;4827212;29;102464;-65
2022/04/15 04:25:02;;;;;;;;;7.25;7.25;;;;;17.86;40.45;98653.22;4828464;29;102472;-65
2022/04/15 04:27:30;;;;;;;;;6.50;6.25;;;;;17.84;39.43;98658.91;4828607;29;104174;-65
2022/04/15 04:29:57;;;;;;;;;7.50;6.50;;;;;17.84;40.27;98651.56;4825316;29;102256;-65
2022/04/15 04:32:24;;;;;;;;;8.75;6.75;;;;;17.83;39.54;98652.63;4830714;29;102410;-65
2022/04/15 04:34:51;;;;;;;;;8.00;7.00;;;;;17.81;40.03;98652.06;4824184;29;102195;-65
2022/04/15 04:37:18;;;;;;;;;7.00;5.50;;;;;17.83;39.98;98649.88;4827107;29;103994;-66
2022/04/15 04:39:44;;;;;;;;;7.50;7.00;;;;;17.82;39.97;98629.09;4826293;29;102048;-65
2022/04/15 04:42:11;;;;;;;;;7.00;6.00;;;;;17.83;39.85;98606.13;4828764;29;102331;-65
2022/04/15 04:44:38;;;;;;;;;8.25;8.00;;;;;17.82;39.62;98617.31;4824688;29;102231;-66
2022/04/15 04:47:09;;;;;;;;;9.00;8.00;;;;;17.83;39.95;98644.41;4828401;29;104028;-65
2022/04/15 04:49:37;;;;;;;;;7.75;6.00;;;;;17.82;39.95;98648.25;4828505;29;102516;-65
2022/04/15 04:52:07;;;;;;;;;7.25;7.25;;;;;17.81;39.91;98652.06;4811167;29;102509;-65
2022/04/15 04:54:34;;;;;;;;;8.00;7.00;;;;;17.82;39.60;98656.44;4829507;29;103088;-66
2022/04/15 04:57:01;;;;;;;;;5.00;5.00;;;;;17.82;39.63;98663.81;4826354;29;103780;-66
2022/04/15 04:59:32;;;;;;;;;7.75;7.25;;;;;17.82;39.94;98669.28;4828973;29;102360;-65
2022/04/15 05:01:59;;;;;;;;;6.00;5.50;;;;;17.82;39.70;98681.06;4823799;29;102549;-66
2022/04/15 05:04:26;;;;;;;;;6.00;6.00;;;;;17.82;40.05;98675.59;4829201;29;102534;-65
2022/04/15 05:06:53;;;;;;;;;6.25;6.00;;;;;17.82;39.72;98678.34;4823375;29;104289;-66
2022/04/15 05:09:21;;;;;;;;;7.00;6.50;;;;;17.81;40.22;98665.72;4825532;29;102160;-65
2022/04/15 05:11:48;;;;;;;;;6.00;5.25;;;;;17.82;39.72;98674.78;4829224;29;102414;-66
2022/04/15 05:14:14;;;;;;;;;7.00;7.00;;;;;17.79;40.07;98686.19;4824302;29;102540;-66
2022/04/15 05:16:41;;;;;;;;;6.00;6.00;;;;;17.80;39.52;98698.78;4823981;29;103968;-66
2022/04/15 05:19:08;;;;;;;;;7.25;7.00;;;;;17.79;39.56;98697.94;4826683;29;102942;-66
2022/04/15 05:21:35;;;;;;;;;7.25;6.75;;;;;17.75;40.08;98699.53;4824941;29;102377;-65
2022/04/15 05:24:02;;;;;;;;;6.50;6.25;;;;;17.79;39.62;98692.47;4826965;29;102009;-65
2022/04/15 05:26:33;;;;;;;;;6.25;5.00;;;;;17.80;40.11;98693.31;4830135;29;104172;-65
2022/04/15 05:29:00;;;;;;;;;5.25;5.25;;;;;17.80;39.89;98691.41;4826104;29;102230;-65
2022/04/15 05:31:27;;;;;;;;;6.50;6.50;;;;;17.80;39.71;98688.69;4828160;29;102414;-65
2022/04/15 05:33:54;;;;;;;;;6.00;5.50;;;;;17.79;39.74;98686.19;4828095;29;102394;-65
2022/04/15 05:36:21;;;;;;;;;5.75;5.75;;;;;17.78;40.30;98690.84;4823711;29;104283;-65
2022/04/15 05:38:48;;;;;;;;;8.75;7.00;;;;;17.80;39.24;98698.78;4828072;29;102411;-65
2022/04/15 05:41:15;;;;;;;;;4.00;4.00;;;;;17.79;39.52;98708.91;4824115;29;102226;-65
2022/04/15 05:43:43;;;;;;;;;7.00;6.00;;;;;17.79;40.26;98705.31;4830201;29;102448;-65
2022/04/15 05:46:10;;;;;;;;;7.00;7.00;;;;;17.79;39.83;98708.06;4826852;29;104272;-65
2022/04/15 05:48:37;;;;;;;;;7.25;6.75;;;;;17.79;39.75;98714.38;4826113;29;102406;-65
2022/04/15 05:51:04;;;;;;;;;6.00;6.00;;;;;17.79;40.02;98719.84;4823672;29;102641;-65
2022/04/15 05:53:31;;;;;;;;;7.25;6.00;;;;;17.75;40.17;98715.94;4827299;29;102405;-65
2022/04/15 05:55:58;;;;;;;;;6.25;6.25;;;;;17.75;40.39;98713.19;4824091;29;104100;-65
2022/04/15 05:58:26;;;;;;;;;7.25;6.50;;;;;17.76;39.72;98709.41;4827644;29;102386;-65
2022/04/15 06:00:53;;;;;;;;;6.00;6.00;;;;;17.73;39.92;98709.88;4824306;29;102334;-65
2022/04/15 06:03:20;;;;;;;;;7.00;7.00;;;;;17.75;39.98;98713.19;4808907;29;103433;-65
2022/04/15 06:05:47;;;;;;;;;7.75;7.50;;;;;17.75;40.61;98710.47;4823406;29;104222;-66
2022/04/15 06:08:14;;;;;;;;;8.00;5.00;;;;;17.76;40.54;98709.41;4828616;29;102145;-65
2022/04/15 06:10:41;;;;;;;;;6.75;5.00;;;;;17.77;40.36;98711.06;4824591;29;102249;-65
2022/04/15 06:13:19;;;;;;;;;7.50;6.25;;;;;17.77;39.86;98710.22;4824428;29;102481;-65
2022/04/15 06:16:06;;;;;;;;;6.00;5.00;;;;;17.77;40.20;98713.78;4808489;29;102741;-65
2022/04/15 06:18:53;;;;;;;;;6.25;6.00;;;;;17.78;40.01;98707.25;4778611;29;102307;-65
2022/04/15 06:22:29;;;;;;;;;5.00;4.00;;;;;17.75;40.35;98707.72;4776834;29;102495;-65
2022/04/15 06:24:59;;;;;;;;;6.75;5.25;;;;;17.76;39.47;98712.13;4709403;29;102585;-65
2022/04/15 06:27:54;;;;;;;;;7.00;4.75;;;;;17.78;40.06;98714.63;4717147;29;104263;-65
2022/04/15 06:30:21;;;;;;;;;6.25;4.75;;;;;17.75;40.68;98718.66;4769716;29;102267;-65
2022/04/15 06:32:48;;;;;;;;;6.25;6.25;;;;;17.74;40.03;98703.31;4776379;29;103845;-65
2022/04/15 06:35:15;;;;;;;;;7.00;6.25;;;;;17.75;39.85;98712.38;4773234;29;102346;-65
2022/04/15 06:37:42;;;;;;;;;7.00;6.25;;;;;17.74;39.82;98714.25;4775935;29;104127;-65
2022/04/15 06:40:09;;;;;;;;;8.25;7.00;;;;;17.74;40.25;98717.00;4769406;29;102351;-65
2022/04/15 06:42:36;;;;;;;;;5.50;5.50;;;;;17.75;40.43;98717.84;4777882;29;102551;-65
2022/04/15 06:45:04;;;;;;;;;4.50;4.50;;;;;17.75;39.90;98710.47;4774538;29;103197;-66
2022/04/15 06:47:30;;;;;;;;;7.00;6.00;;;;;17.75;39.98;98715.94;4769191;29;104031;-66
2022/04/15 06:49:57;;;;;;;;;7.25;7.00;;;;;17.74;39.74;98717.00;4802685;29;102364;-65
2022/04/15 06:52:24;;;;;;;;;6.75;6.00;;;;;17.75;40.17;98715.94;4826124;29;102486;-65
2022/04/15 06:54:51;;;;;;;;;5.00;5.00;;;;;17.76;40.28;98717.59;4825958;29;102492;-65
2022/04/15 06:57:18;;;;;;;;;7.00;6.25;;;;;17.75;39.86;98723.31;4825511;29;104042;-65
2022/04/15 06:59:45;;;;;;;;;5.50;4.75;;;;;17.74;40.27;98722.47;4823014;29;102140;-65
2022/04/15 07:02:12;;;;;;;;;7.50;6.00;;;;;17.75;39.47;98724.13;4825508;29;102404;-65
2022/04/15 07:04:39;;;;;;;;;4.25;4.25;;;;;17.75;40.87;98726.88;4813248;29;102618;-66
2022/04/15 07:07:06;;;;;;;;;6.00;6.00;;;;;17.74;39.95;98722.47;4823047;29;104240;-65
2022/04/15 07:09:32;;;;;;;;;6.00;6.00;;;;;17.75;39.75;98728.78;4824644;29;102345;-65
2022/04/15 07:11:59;;;;;;;;;5.75;5.75;;;;;17.74;40.78;98727.13;4824758;29;102135;-65
2022/04/15 07:14:26;;;;;;;;;6.50;5.75;;;;;17.74;40.26;98727.94;4827154;29;102556;-65
2022/04/15 07:16:53;;;;;;;;;7.25;7.25;;;;;17.74;40.02;98725.19;4820973;29;104606;-65
2022/04/15 07:19:21;;;;;;;;;6.25;6.00;;;;;17.73;39.97;98737.25;4818634;29;102223;-65
2022/04/15 07:21:48;;;;;;;;;7.00;6.00;;;;;17.75;39.85;98734.25;4811063;29;102328;-65
2022/04/15 07:24:14;;;;;;;;;4.00;4.00;;;;;17.75;40.32;98731.50;4828700;29;103056;-65
2022/04/15 07:26:42;;;;;;;;;6.00;5.00;;;;;17.74;40.44;98730.69;4822164;29;104292;-65
2022/04/15 07:29:09;;;;;;;;;7.00;6.25;;;;;17.74;40.13;98743.53;4824709;29;102291;-66
2022/04/15 07:31:35;;;;;;;;;6.00;5.25;;;;;17.74;40.10;98735.34;4823160;29;102393;-65
2022/04/15 07:34:03;;;;;;;;;5.25;5.25;;;;;17.75;40.30;98742.44;4828412;29;102186;-65
2022/04/15 07:39:06;;;;;;;;;6.00;6.00;;;;;17.75;40.61;98745.19;4824745;29;102473;-66
2022/04/15 07:41:36;;;;;;;;;6.75;6.75;;;;;17.74;40.85;98746.28;4822419;29;102099;-65
2022/04/15 07:44:07;;;;;;;;;5.00;5.00;;;;;17.74;40.02;98738.06;4826655;29;102425;-65
2022/04/15 07:46:33;;;;;;;;;6.00;6.00;;;;;17.75;39.82;98746.03;4808645;29;104108;-65
2022/04/15 07:49:00;;;;;;;;;6.25;5.00;;;;;17.74;39.86;98752.56;4826089;29;102108;-66
2022/04/15 07:51:29;;;;;;;;;6.25;5.50;;;;;17.74;39.92;98746.28;4823572;29;102387;-66
2022/04/15 07:53:56;;;;;;;;;4.75;4.50;;;;;17.73;39.95;98742.72;4821077;29;102287;-65
2022/04/15 07:56:23;;;;;;;;;6.75;6.00;;;;;17.75;40.13;98756.13;4823941;29;104097;-65
2022/04/15 07:58:53;;;;;;;;;8.00;7.00;;;;;17.74;40.37;98752.56;4822284;29;102411;-65
2022/04/15 08:01:20;;;;;;;;;7.00;7.00;;;;;17.76;40.49;98750.41;4825184;29;102577;-65
2022/04/15 08:03:47;;;;;;;;;6.75;6.50;;;;;17.74;39.95;98749.81;4826192;29;102236;-65
2022/04/15 08:06:14;;;;;;;;;8.25;6.50;;;;;17.74;40.51;98741.63;4805674;29;104281;-65
2022/04/15 08:08:41;;;;;;;;;6.00;6.00;;;;;17.76;40.94;98747.69;4824409;29;102346;-65
2022/04/15 08:11:09;;;;;;;;;6.50;6.50;;;;;17.75;40.03;98751.50;4823218;29;102152;-66
2022/04/15 08:13:36;;;;;;;;;6.75;6.00;;;;;17.74;40.40;98749.81;4827689;29;102091;-66
2022/04/15 08:16:04;;;;;;;;;6.00;6.00;;;;;17.75;39.83;98756.13;4826179;29;104206;-65
2022/04/15 08:18:31;;;;;;;;;6.75;6.75;;;;;17.75;39.84;98756.13;4822050;29;102561;-65
2022/04/15 08:20:57;;;;;;;;;7.00;6.50;;;;;17.74;40.29;98752.56;4823227;29;102055;-66
2022/04/15 08:23:24;;;;;;;;;5.50;4.75;;;;;17.74;40.15;98755.28;4824370;29;102499;-66
2022/04/15 08:25:51;;;;;;;;;8.00;6.00;;;;;17.74;39.92;98749.81;4826070;29;104308;-66
2022/04/15 08:28:21;;;;;;;;;6.00;5.00;;;;;17.75;39.57;98750.66;4819341;29;102745;-66
2022/04/15 08:30:48;;;;;;;;;7.50;6.00;;;;;17.75;40.21;98753.38;4810989;29;102571;-65
2022/04/15 08:33:15;;;;;;;;;5.25;5.25;;;;;17.75;40.21;98748.75;4826439;29;102596;-66
2022/04/15 08:35:42;;;;;;;;;5.25;5.25;;;;;17.75;40.03;98750.66;4826861;29;104123;-65
2022/04/15 08:38:09;;;;;;;;;6.00;6.00;;;;;17.74;40.39;98752.56;4813104;29;102426;-66
2022/04/15 08:40:37;;;;;;;;;5.75;5.75;;;;;17.73;40.01;98753.66;4825596;29;102507;-65
2022/04/15 08:43:06;;;;;;;;;9.00;6.00;;;;;17.74;39.85;98760.75;4810908;29;102597;-65
2022/04/15 08:45:33;;;;;;;;;7.75;5.00;;;;;17.73;40.63;98759.13;4829022;29;104374;-65
2022/04/15 08:48:06;;;;;;;;;6.00;5.75;;;;;17.73;40.04;98759.13;4826490;29;102325;-66
2022/04/15 08:50:33;;;;;;;;;6.00;6.00;;;;;17.73;40.37;98767.31;4826486;29;102341;-65
2022/04/15 08:53:00;;;;;;;;;6.00;5.00;;;;;17.72;40.66;98762.91;4829655;29;102071;-66
2022/04/15 08:55:27;;;;;;;;;6.00;5.00;;;;;17.72;40.17;98764.81;4827615;29;104265;-66
2022/04/15 08:57:55;;;;;;;;;6.00;5.25;;;;;17.70;40.30;98759.59;4795162;29;102074;-65
2022/04/15 09:00:28;;;;;;;;;7.75;7.75;;;;;17.71;40.83;98772.19;4825713;29;102220;-65
2022/04/15 09:02:56;;;;;;;;;5.00;5.00;;;;;17.71;40.83;98766.72;4827385;29;102215;-66
2022/04/15 09:05:27;;;;;;;;;5.50;5.25;;;;;17.71;41.13;98763.16;4828089;29;104103;-66
2022/04/15 09:08:08;;;;;;;;;6.00;6.00;;;;;17.71;40.10;98764.00;4825970;29;102053;-65
2022/04/15 09:10:35;;;;;;;;;6.75;6.00;;;;;17.71;40.71;98761.25;4829324;29;102378;-65
2022/04/15 09:13:05;;;;;;;;;4.00;4.00;;;;;17.71;39.71;98755.78;4828408;29;102554;-66
2022/04/15 09:15:34;;;;;;;;;5.50;5.25;;;;;17.72;40.04;98757.47;4827029;29;104038;-65
2022/04/15 09:18:01;;;;;;;;;8.00;6.00;;;;;17.72;40.71;98762.91;4826083;29;102396;-66
2022/04/15 09:20:33;;;;;;;;;5.75;5.75;;;;;17.74;40.65;98749.81;4826585;29;102467;-65
2022/04/15 09:23:10;;;;;;;;;5.00;5.00;;;;;17.73;40.42;98756.38;4825028;29;102108;-65
2022/04/15 09:25:39;;;;;;;;;5.25;4.25;;;;;17.73;40.02;98753.66;4824133;29;104060;-65
2022/04/15 09:28:06;;;;;;;;;7.50;6.00;;;;;17.74;40.75;98747.09;4828168;29;102333;-65
2022/04/15 09:30:39;;;;;;;;;7.25;6.50;;;;;17.74;40.59;98747.09;4828932;29;102106;-65
2022/04/15 09:33:09;;;;;;;;;4.00;4.00;;;;;17.75;40.58;98739.72;4826086;29;102455;-66
2022/04/15 09:35:36;;;;;;;;;5.50;5.25;;;;;17.75;39.74;98737.81;4811964;29;104128;-66
2022/04/15 09:38:04;;;;;;;;;4.25;4.25;;;;;17.75;40.28;98740.53;4824591;29;102207;-65
2022/04/15 09:40:38;;;;;;;;;5.00;5.00;;;;;17.76;39.99;98744.94;4825516;29;102114;-65
2022/04/15 09:43:06;;;;;;;;;8.00;6.00;;;;;17.75;40.13;98740.53;4828627;29;102566;-65
2022/04/15 09:45:36;;;;;;;;;6.50;6.25;;;;;17.77;40.67;98740.31;4827436;29;104100;-65
2022/04/15 09:48:10;;;;;;;;;3.00;3.00;;;;;17.77;40.11;98737.59;4827534;29;102189;-66
2022/04/15 09:50:42;;;;;;;;;5.25;5.00;;;;;17.75;40.84;98732.34;4825995;29;102194;-66
2022/04/15 09:53:11;;;;;;;;;5.50;5.00;;;;;17.77;40.60;98743.88;4827211;29;102582;-65
2022/04/15 09:55:50;;;;;;;;;3.75;3.25;;;;;17.76;40.27;98739.47;4826790;29;104626;-65
2022/04/15 09:58:21;;;;;;;;;4.50;4.00;;;;;17.78;41.22;98733.78;4826386;29;102744;-66
2022/04/15 10:00:51;;;;;;;;;5.00;5.00;;;;;17.75;40.28;98735.06;4825382;29;102425;-65
2022/04/15 10:03:23;;;;;;;;;5.50;4.25;;;;;17.76;40.52;98731.28;4828887;29;102205;-65
2022/04/15 10:05:50;;;;;;;;;6.00;5.25;;;;;17.78;41.07;98729.13;4826893;29;104058;-66
2022/04/15 10:08:20;;;;;;;;;5.50;4.50;;;;;17.79;39.90;98730.78;4827360;29;102555;-65
2022/04/15 10:10:47;;;;;;;;;6.00;5.00;;;;;17.79;41.05;98740.88;4808837;29;102408;-66
2022/04/15 10:13:14;;;;;;;;;5.00;5.00;;;;;17.79;40.15;98736.25;4831467;29;102247;-66
2022/04/15 10:15:41;;;;;;;;;4.00;4.00;;;;;17.80;40.17;98743.38;4814550;29;104272;-66
2022/04/15 10:18:08;;;;;;;;;6.00;5.00;;;;;17.82;40.40;98741.25;4824274;29;102362;-66
2022/04/15 10:20:37;;;;;;;;;5.00;5.00;;;;;17.83;41.11;98748.34;4824002;29;102320;-65
2022/04/15 10:23:08;;;;;;;;;4.25;4.25;;;;;17.84;40.12;98739.09;4829091;29;103155;-65
2022/04/15 10:25:36;;;;;;;;;5.00;4.00;;;;;17.84;40.20;98733.63;4829784;29;104276;-65
2022/04/15 10:28:19;;;;;;;;;4.75;4.75;;;;;17.87;40.66;98732.31;4826102;29;102316;-66
2022/04/15 10:30:54;;;;;;;;;4.00;4.00;;;;;17.88;39.67;98730.41;4805067;29;102462;-65
2022/04/15 10:33:30;;;;;;;;;5.00;5.00;;;;;17.89;40.66;98724.66;4825724;29;102626;-65
2022/04/15 10:36:09;;;;;;;;;3.75;3.50;;;;;17.90;40.50;98709.09;4822643;29;104333;-65
2022/04/15 10:38:36;;;;;;;;;4.00;4.00;;;;;17.91;40.26;98718.97;4827327;29;102618;-65
2022/04/15 10:41:15;;;;;;;;;5.00;5.00;;;;;17.92;39.93;98706.97;4803954;29;102263;-66
2022/04/15 10:43:55;;;;;;;;;4.00;4.00;;;;;17.93;40.66;98714.06;4827022;29;103159;-65
2022/04/15 10:46:28;;;;;;;;;3.00;2.00;;;;;17.93;40.89;98708.59;4820799;29;104077;-65
2022/04/15 10:49:00;;;;;;;;;3.50;3.00;;;;;17.94;40.38;98700.16;4813580;29;102143;-66
2022/04/15 10:51:30;;;;;;;;;5.00;5.00;;;;;17.95;40.43;98700.97;4806844;29;102254;-65
2022/04/15 10:54:34;;;;;;;;;5.00;5.00;;;;;17.96;40.15;98699.91;4811309;29;102440;-66
2022/04/15 10:57:02;;;;;;;;;4.00;4.00;;;;;17.96;39.72;98692.53;4823423;29;103803;-66
2022/04/15 11:02:22;;;;;;;;;4.25;3.75;;;;;17.97;40.13;98702.38;4821217;29;102357;-65
2022/04/15 11:04:52;;;;;;;;;3.50;3.00;;;;;17.99;40.42;98707.63;4821794;29;102262;-66
2022/04/15 11:07:25;;;;;;;;;5.00;4.00;;;;;18.00;39.96;98703.81;4824371;29;104084;-66
2022/04/15 11:09:52;;;;;;;;;4.00;4.00;;;;;18.01;40.25;98705.47;4821192;29;102321;-66
2022/04/15 11:12:35;;;;;;;;;4.00;3.00;;;;;18.01;40.00;98703.53;4806316;29;102466;-66
2022/04/15 11:15:03;;;;;;;;;3.25;3.25;;;;;18.02;40.19;98697.00;4824251;29;102158;-65
2022/04/15 11:17:39;;;;;;;;;5.75;4.00;;;;;18.03;40.24;98706.03;4825411;29;104081;-66
2022/04/15 11:20:09;;;;;;;;;4.00;3.25;;;;;18.04;40.08;98703.06;4821539;29;102119;-66
2022/04/15 11:22:39;;;;;;;;;4.00;4.00;;;;;18.05;39.78;98695.69;4828378;29;102376;-65
2022/04/15 11:25:08;;;;;;;;;4.00;3.00;;;;;18.05;39.70;98693.78;4827404;29;102353;-66
2022/04/15 11:27:35;;;;;;;;;4.00;3.00;;;;;18.05;40.33;98702.00;4825753;29;104394;-66
2022/04/15 11:30:05;;;;;;;;;4.00;3.25;;;;;18.05;40.66;98690.22;4812224;29;102403;-65
2022/04/15 11:32:32;;;;;;;;;3.75;3.75;;;;;18.07;40.30;98699.00;4825566;29;102383;-65
2022/04/15 11:35:05;;;;;;;;;3.00;3.00;;;;;18.07;39.99;98691.63;4796601;29;103564;-66
2022/04/15 11:37:32;;;;;;;;;3.00;3.00;;;;;18.08;39.99;98695.19;4825070;29;104301;-65